Startpagina
METAR-TAF:

METAR-TAF

Vliegvelden :

Norwich International Airport

Norwich, Engeland

breedte: 52-38N, lengte: 001-18E, hoogte: 14 m

Actueel weer

Dit bericht is 25 minuten geleden gemaakt, om 20:50 UTC
Wind 8 kt uit het westzuidwesten, variërend tussen het zuidwesten en het westen
Temperatuur 5°C
Vochtigheid 70%
Druk 1022 hPa
Zicht 10 km of meer
geen wolken onder 1500 m en geen cumulonimbus

METAR: EGSH 232050Z 25008KT 220V280 CAVOK 05/M00 Q1022 NOSIG

Tijdstip: 21:15 (21:15 UTC)

Verwachting

Dit bericht is 1 uur en het 14 minuten geleden gemaakt, om 20:01 UTC
Verwachting geldig van 23 om 21 UTC tot 23 om 24 UTC
Wind 8 kt uit het westen
Zicht 10 km of meer
geen wolken onder 1500 m en geen cumulonimbus

TAF: EGSH 232001Z 2321/2324 26008KT CAVOK

Waarnemingen en weersverwachtingen van meer dan 4000 vliegvelden (METAR en TAF).

De beschikbare stations zijn de gele en rode punten op de kaart.

Ga met uw muis naar het station om de naam te zien.

Klik dan om waarnemingen en weersverwachtingen te zien.

kaart wijzigen: klik op de groene knoppen met een zwart kruis om in te zoomen, op de groene knop met een streepje om uit te zoomen of op de groene pijlen voor aangrenzende kaarten.


METAR-TAF: